createdAt,value
2022-11-06T00:06:00.948Z,99.90
2022-11-06T00:16:04.794Z,99.90
2022-11-06T00:26:08.558Z,99.90
2022-11-06T00:36:13.554Z,99.90
2022-11-06T00:46:15.823Z,99.90
2022-11-06T00:56:21.008Z,99.90
2022-11-06T01:06:26.058Z,99.90
2022-11-06T01:16:28.948Z,99.90
2022-11-06T01:26:38.183Z,99.90
2022-11-06T01:36:41.139Z,99.90
2022-11-06T01:46:42.755Z,99.90
2022-11-06T01:56:46.073Z,99.90
2022-11-06T02:06:48.775Z,99.90
2022-11-06T02:17:03.036Z,99.90
2022-11-06T02:27:19.724Z,99.90
2022-11-06T02:37:28.295Z,99.90
2022-11-06T02:47:31.994Z,99.90
2022-11-06T02:57:37.888Z,99.80
2022-11-06T03:07:52.637Z,99.80
2022-11-06T03:18:09.979Z,99.90
2022-11-06T03:28:34.678Z,99.70
2022-11-06T03:38:56.654Z,99.80
2022-11-06T03:49:02.309Z,99.80
2022-11-06T03:59:07.043Z,99.70
2022-11-06T04:09:30.226Z,99.90
2022-11-06T04:19:31.864Z,99.30
2022-11-06T04:30:01.918Z,99.40
2022-11-06T04:40:09.426Z,99.40
2022-11-06T04:50:13.444Z,99.50
2022-11-06T05:00:16.547Z,99.40
2022-11-06T05:10:18.201Z,99.40
2022-11-06T05:20:19.824Z,99.40
2022-11-06T05:30:22.018Z,99.20
2022-11-06T05:40:23.744Z,99.30
2022-11-06T05:50:25.434Z,99.30
2022-11-06T06:00:27.091Z,99.40
2022-11-06T06:10:28.758Z,99.90
2022-11-06T06:20:30.389Z,99.90
2022-11-06T06:30:32.074Z,99.90
2022-11-06T06:40:33.736Z,99.90
2022-11-06T06:50:35.368Z,99.90
2022-11-06T07:00:37.194Z,99.90
2022-11-06T07:10:38.884Z,99.90
2022-11-06T07:20:40.535Z,99.90
2022-11-06T07:30:42.155Z,99.90
2022-11-06T07:40:43.813Z,99.90
2022-11-06T07:50:45.460Z,99.90
2022-11-06T08:00:51.918Z,99.90
2022-11-06T08:10:53.916Z,99.90
2022-11-06T08:20:55.664Z,99.90
2022-11-06T08:30:57.304Z,99.90
2022-11-06T08:40:58.964Z,99.90
2022-11-06T08:51:00.979Z,99.90
2022-11-06T09:01:02.711Z,99.90
2022-11-06T09:11:07.804Z,99.90
2022-11-06T09:21:09.482Z,99.90
2022-11-06T09:31:11.166Z,99.70
2022-11-06T09:41:45.120Z,99.90
2022-11-06T09:51:59.644Z,98.70
2022-11-06T10:02:01.892Z,98.20
2022-11-06T10:12:38.380Z,98.50
2022-11-06T10:22:44.924Z,98.10
2022-11-06T10:33:20.144Z,98.00
2022-11-06T10:43:45.383Z,97.60
2022-11-06T10:54:09.270Z,97.00
2022-11-06T11:04:11.207Z,97.30
2022-11-06T11:14:15.172Z,96.90
2022-11-06T11:24:16.868Z,96.60
2022-11-06T11:34:25.536Z,97.00
2022-11-06T11:44:27.177Z,96.80
2022-11-06T11:54:33.852Z,96.10
2022-11-06T12:04:40.162Z,95.20
2022-11-06T12:14:41.821Z,93.70
2022-11-06T12:24:52.984Z,93.50
2022-11-06T12:35:23.919Z,92.60
2022-11-06T12:45:35.408Z,92.10
2022-11-06T12:56:02.630Z,92.00
2022-11-06T13:06:22.508Z,92.30
2022-11-06T13:16:32.480Z,92.50
2022-11-06T13:26:40.389Z,92.70
2022-11-06T13:36:42.761Z,92.80
2022-11-06T13:47:05.343Z,92.60
2022-11-06T13:57:49.477Z,92.90
2022-11-06T14:07:52.409Z,92.60
2022-11-06T14:17:59.596Z,93.00
2022-11-06T14:28:01.209Z,93.20
2022-11-06T14:38:26.925Z,93.40
2022-11-06T14:48:42.201Z,93.40
2022-11-06T14:59:20.428Z,93.60
2022-11-06T15:09:24.871Z,94.00
2022-11-06T15:19:30.837Z,94.40
2022-11-06T15:29:37.299Z,94.70
2022-11-06T15:39:41.461Z,95.00
2022-11-06T15:49:43.091Z,95.00
2022-11-06T15:59:48.170Z,95.30
2022-11-06T16:09:52.845Z,95.20
2022-11-06T16:20:00.699Z,95.30
2022-11-06T16:30:03.916Z,95.30
2022-11-06T16:40:26.654Z,95.10
2022-11-06T16:50:46.403Z,95.20
2022-11-06T17:00:58.825Z,95.20
2022-11-06T17:11:16.798Z,95.40
2022-11-06T17:21:23.660Z,95.60
2022-11-06T17:31:26.912Z,95.70
2022-11-06T17:41:32.152Z,95.80
2022-11-06T17:51:52.879Z,95.90
2022-11-06T18:01:55.203Z,95.80
2022-11-06T18:11:58.218Z,95.80
2022-11-06T18:22:06.373Z,96.10
2022-11-06T18:32:08.447Z,96.20
2022-11-06T18:42:10.094Z,96.30
2022-11-06T18:52:11.737Z,96.40
2022-11-06T19:02:13.503Z,96.20
2022-11-06T19:12:15.216Z,96.30
2022-11-06T19:22:16.894Z,96.60
2022-11-06T19:32:18.537Z,97.00
2022-11-06T19:42:20.210Z,97.10
2022-11-06T19:52:44.165Z,97.40
2022-11-06T20:02:43.592Z,97.60
2022-11-06T20:12:45.935Z,97.60
2022-11-06T20:22:48.184Z,97.90
2022-11-06T20:32:49.919Z,98.10
2022-11-06T20:42:51.532Z,98.40
2022-11-06T20:52:53.182Z,98.70
2022-11-06T21:03:00.504Z,99.10
2022-11-06T21:13:03.306Z,98.90
2022-11-06T21:23:05.060Z,99.20
2022-11-06T21:33:06.687Z,99.20
2022-11-06T21:43:08.402Z,99.80
2022-11-06T21:53:29.753Z,99.90
2022-11-06T22:03:32.700Z,99.90
2022-11-06T22:13:34.583Z,99.90
2022-11-06T22:23:37.104Z,99.90
2022-11-06T22:33:39.299Z,99.90
2022-11-06T22:43:41.787Z,99.90
2022-11-06T22:53:43.817Z,99.90
2022-11-06T23:03:45.439Z,99.90
2022-11-06T23:13:47.059Z,98.90
2022-11-06T23:23:48.723Z,98.60
2022-11-06T23:33:50.359Z,98.20
2022-11-06T23:43:52.254Z,97.90
2022-11-06T23:53:54.537Z,97.30
